Time;durP1;ratioP1;P1;durP2;ratioP2;P2;SDS_P1;SDS_P2;PMS_P1;PMS_P2;Temp;Humidity;BMP_temperature;BMP_pressure;BME280_temperature;BME280_humidity;BME280_pressure;Samples;Min_cycle;Max_cycle;Signal;HPM_P1;HPM_P2
2021/03/12 00:00:15;;;;;;;0.88;0.75;;;6.60;99.90;;;;;;5014079;28;20230;-86
2021/03/12 00:02:42;;;;;;;1.13;0.82;;;6.70;99.90;;;;;;5011685;28;20239;-89
2021/03/12 00:05:12;;;;;;;1.13;0.73;;;6.60;99.90;;;;;;5014333;28;20286;-88
2021/03/12 00:07:38;;;;;;;2.95;1.10;;;6.60;99.90;;;;;;5013416;28;20373;-85
2021/03/12 00:10:09;;;;;;;2.35;0.88;;;6.70;99.90;;;;;;5013238;28;20299;-88
2021/03/12 00:12:35;;;;;;;9.68;1.08;;;6.60;99.90;;;;;;5012617;28;20210;-89
2021/03/12 00:15:05;;;;;;;2.15;0.60;;;6.70;99.90;;;;;;5013188;28;20290;-86
2021/03/12 00:17:31;;;;;;;0.95;0.60;;;6.70;99.90;;;;;;4977236;28;20310;-90
2021/03/12 00:19:58;;;;;;;1.73;0.50;;;6.70;99.90;;;;;;5001787;28;20251;-87
2021/03/12 00:22:24;;;;;;;2.13;0.80;;;6.70;99.90;;;;;;4993368;28;20293;-88
2021/03/12 00:24:50;;;;;;;0.98;0.40;;;6.80;99.90;;;;;;4993384;28;20623;-87
2021/03/12 00:27:17;;;;;;;0.80;0.50;;;6.90;99.90;;;;;;4993257;28;20234;-87
2021/03/12 00:29:43;;;;;;;1.13;0.85;;;6.90;99.90;;;;;;4993969;28;20290;-86
2021/03/12 00:32:10;;;;;;;1.38;0.70;;;6.90;99.90;;;;;;4996037;28;20306;-86
2021/03/12 00:34:37;;;;;;;1.15;0.55;;;6.90;99.90;;;;;;4998193;28;20211;-88
2021/03/12 00:37:04;;;;;;;3.00;1.02;;;7.00;99.90;;;;;;4997201;28;20223;-88
2021/03/12 00:39:31;;;;;;;2.58;0.95;;;7.00;99.90;;;;;;4995262;28;20291;-86
2021/03/12 00:41:57;;;;;;;1.08;0.85;;;7.10;99.90;;;;;;4998049;28;20212;-85
2021/03/12 00:44:25;;;;;;;1.05;0.60;;;7.20;99.90;;;;;;4996922;28;20291;-85
2021/03/12 00:46:52;;;;;;;1.02;0.57;;;7.20;99.90;;;;;;5004011;28;20223;-87
2021/03/12 00:49:19;;;;;;;2.95;0.65;;;7.30;99.90;;;;;;5017289;28;20231;-90
2021/03/12 00:51:45;;;;;;;0.82;0.60;;;7.60;99.90;;;;;;5016661;28;20691;-87
2021/03/12 00:54:12;;;;;;;2.15;0.75;;;7.60;99.90;;;;;;5016726;28;20231;-85
2021/03/12 00:56:38;;;;;;;0.47;0.45;;;7.70;99.90;;;;;;5016615;28;20672;-82
2021/03/12 00:59:05;;;;;;;0.50;0.50;;;7.80;99.90;;;;;;5015873;28;20298;-87
2021/03/12 01:01:34;;;;;;;1.35;0.65;;;7.80;99.90;;;;;;5015430;28;20254;-88
2021/03/12 01:04:00;;;;;;;2.50;0.50;;;8.00;99.90;;;;;;5015719;28;20388;-86
2021/03/12 01:06:28;;;;;;;7.40;0.77;;;8.10;99.90;;;;;;5016451;28;20267;-87
2021/03/12 01:08:54;;;;;;;0.57;0.57;;;8.20;99.90;;;;;;5016506;28;20306;-82
2021/03/12 01:11:21;;;;;;;1.80;0.67;;;8.30;99.90;;;;;;5017315;28;20462;-86
2021/03/12 01:13:48;;;;;;;0.60;0.60;;;8.20;99.90;;;;;;5017285;28;20974;-91
2021/03/12 01:16:15;;;;;;;1.23;0.80;;;8.10;99.90;;;;;;5016983;28;20303;-84
2021/03/12 01:18:42;;;;;;;1.37;1.27;;;8.10;99.90;;;;;;5017626;28;20541;-81
2021/03/12 01:21:08;;;;;;;6.68;0.90;;;8.10;99.90;;;;;;5015405;28;20569;-85
2021/03/12 01:23:35;;;;;;;1.38;1.08;;;8.00;99.90;;;;;;5016343;28;20203;-86
2021/03/12 01:26:02;;;;;;;5.38;0.65;;;8.00;99.90;;;;;;5016291;28;20670;-87
2021/03/12 01:28:29;;;;;;;0.50;0.40;;;7.90;99.90;;;;;;5016441;28;20314;-88
2021/03/12 01:30:55;;;;;;;1.20;1.10;;;8.00;99.90;;;;;;5015220;28;20675;-84
2021/03/12 01:33:22;;;;;;;2.70;0.73;;;7.90;99.90;;;;;;5015918;28;20663;-87
2021/03/12 01:35:48;;;;;;;0.90;0.50;;;7.80;99.90;;;;;;5015845;28;20379;-88
2021/03/12 01:38:14;;;;;;;1.40;0.60;;;7.70;99.90;;;;;;5015665;28;20294;-85
2021/03/12 01:40:44;;;;;;;3.40;1.02;;;7.60;99.90;;;;;;5016113;28;20218;-84
2021/03/12 01:43:11;;;;;;;1.67;0.70;;;7.60;99.90;;;;;;5015258;28;20235;-86
2021/03/12 01:45:40;;;;;;;1.63;1.50;;;7.70;99.90;;;;;;5014952;28;20238;-85
2021/03/12 01:48:10;;;;;;;1.25;1.15;;;7.60;99.90;;;;;;5016360;28;20324;-88
2021/03/12 01:50:37;;;;;;;0.50;0.50;;;7.60;99.90;;;;;;5017189;28;20246;-85
2021/03/12 01:53:05;;;;;;;1.33;0.80;;;7.60;99.90;;;;;;5015882;28;20298;-89
2021/03/12 01:55:33;;;;;;;0.95;0.50;;;7.60;99.90;;;;;;5016185;28;20291;-82
2021/03/12 01:58:00;;;;;;;0.40;0.40;;;7.70;99.60;;;;;;5014873;28;20246;-84
2021/03/12 02:00:28;;;;;;;1.03;0.50;;;7.70;99.40;;;;;;5015826;28;20299;-85
2021/03/12 02:02:55;;;;;;;1.90;0.70;;;7.70;99.50;;;;;;5015300;28;20553;-85
2021/03/12 02:05:21;;;;;;;1.23;1.10;;;7.70;99.20;;;;;;5030164;28;20231;-87
2021/03/12 02:07:47;;;;;;;1.40;0.77;;;7.70;99.20;;;;;;5037526;28;20235;-83
2021/03/12 02:10:17;;;;;;;1.30;0.85;;;7.70;99.80;;;;;;5030508;28;20293;-83
2021/03/12 02:12:52;;;;;;;3.33;0.82;;;7.60;99.90;;;;;;5030999;28;20192;-82
2021/03/12 02:15:28;;;;;;;3.05;1.30;;;7.50;99.90;;;;;;5039417;28;20194;-85
2021/03/12 02:18:01;;;;;;;1.35;0.57;;;7.90;99.90;;;;;;5039369;28;20191;-84
2021/03/12 02:20:34;;;;;;;0.80;0.70;;;7.20;99.90;;;;;;5026297;28;20296;-83
2021/03/12 02:23:14;;;;;;;2.22;0.90;;;7.20;99.90;;;;;;5021265;28;20234;-83
2021/03/12 02:25:45;;;;;;;4.22;1.75;;;7.00;99.90;;;;;;5015819;28;20291;-92
2021/03/12 02:28:22;;;;;;;0.93;0.75;;;7.10;99.90;;;;;;5017598;28;20240;-89
2021/03/12 02:30:49;;;;;;;0.90;0.77;;;7.00;99.90;;;;;;5015461;28;20241;-85
2021/03/12 02:33:16;;;;;;;4.75;0.80;;;7.00;99.90;;;;;;5028371;28;20207;-85
2021/03/12 02:35:46;;;;;;;2.80;0.90;;;7.10;99.90;;;;;;5038848;28;20212;-88
2021/03/12 02:38:13;;;;;;;3.45;1.20;;;7.10;99.90;;;;;;5039494;28;20214;-86
2021/03/12 02:40:42;;;;;;;4.35;0.73;;;7.10;99.90;;;;;;5030775;28;20227;-86
2021/03/12 02:43:09;;;;;;;0.77;0.77;;;7.10;99.90;;;;;;5016323;28;20211;-89
2021/03/12 02:45:37;;;;;;;2.85;0.90;;;6.90;99.90;;;;;;4994835;28;20200;-86
2021/03/12 02:48:04;;;;;;;1.08;0.98;;;6.70;99.90;;;;;;4995718;28;20686;-89
2021/03/12 02:50:30;;;;;;;2.70;0.68;;;6.40;99.90;;;;;;4994917;28;20216;-86
2021/03/12 02:52:58;;;;;;;1.83;1.00;;;6.30;99.90;;;;;;4995415;28;20300;-86
2021/03/12 02:55:25;;;;;;;0.75;0.75;;;6.10;99.90;;;;;;4996047;28;20237;-86
2021/03/12 02:57:52;;;;;;;4.03;1.10;;;6.10;99.90;;;;;;4995639;28;20240;-91
2021/03/12 03:00:19;;;;;;;5.57;1.45;;;6.10;99.90;;;;;;4999901;28;20214;-88
2021/03/12 03:02:49;;;;;;;7.43;0.80;;;6.00;99.90;;;;;;4998228;28;20243;-92
2021/03/12 03:05:16;;;;;;;1.40;0.70;;;5.90;99.90;;;;;;4996776;28;20291;-90
2021/03/12 03:07:48;;;;;;;1.63;0.90;;;5.90;99.90;;;;;;4996960;28;20294;-88
2021/03/12 03:10:17;;;;;;;2.33;0.80;;;5.80;99.90;;;;;;4998216;28;20649;-90
2021/03/12 03:12:50;;;;;;;1.00;0.80;;;5.80;99.90;;;;;;4997223;28;20299;-88
2021/03/12 03:15:17;;;;;;;1.77;1.02;;;6.10;99.90;;;;;;4998443;28;20273;-88
2021/03/12 03:17:44;;;;;;;1.40;0.95;;;5.70;99.90;;;;;;4998947;28;20207;-88
2021/03/12 03:20:14;;;;;;;2.45;0.95;;;5.80;99.90;;;;;;4998981;28;20298;-87
2021/03/12 03:22:42;;;;;;;7.07;0.80;;;5.90;99.90;;;;;;5013842;28;20630;-88
2021/03/12 03:25:10;;;;;;;2.75;1.60;;;6.00;99.90;;;;;;5015551;28;20294;-86
2021/03/12 03:27:38;;;;;;;1.17;0.60;;;6.10;99.90;;;;;;5013645;28;20322;-83
2021/03/12 03:30:05;;;;;;;1.65;0.80;;;6.10;99.90;;;;;;5014238;28;20295;-90
2021/03/12 03:32:32;;;;;;;4.30;1.48;;;6.30;99.90;;;;;;5012723;28;20397;-84
2021/03/12 03:35:00;;;;;;;5.03;1.25;;;6.40;99.90;;;;;;5015628;28;20626;-86
2021/03/12 03:37:29;;;;;;;1.20;0.73;;;6.50;99.90;;;;;;5013189;28;20239;-84
2021/03/12 03:39:56;;;;;;;1.63;0.73;;;6.60;99.90;;;;;;5014118;28;20211;-85
2021/03/12 03:42:28;;;;;;;2.25;0.70;;;6.70;99.90;;;;;;5015443;28;20246;-86
2021/03/12 03:44:57;;;;;;;2.97;0.90;;;6.70;99.90;;;;;;5013738;28;20234;-85
2021/03/12 03:47:25;;;;;;;0.63;0.60;;;6.70;99.90;;;;;;5012567;28;20234;-85
2021/03/12 03:49:52;;;;;;;1.23;0.60;;;6.90;99.90;;;;;;5012659;28;20730;-81
2021/03/12 03:52:22;;;;;;;2.10;0.70;;;6.90;99.90;;;;;;5013454;28;20235;-85
2021/03/12 03:54:51;;;;;;;0.50;0.40;;;7.00;99.90;;;;;;5013601;28;20293;-84
2021/03/12 03:57:20;;;;;;;1.55;0.90;;;7.00;99.90;;;;;;5012731;28;20215;-83
2021/03/12 03:59:48;;;;;;;0.60;0.60;;;7.00;99.90;;;;;;5013237;28;20294;-87
2021/03/12 04:02:17;;;;;;;2.45;0.90;;;7.00;99.90;;;;;;5012502;28;20239;-84
2021/03/12 04:04:45;;;;;;;3.05;0.80;;;7.00;99.90;;;;;;5013998;28;20211;-89
2021/03/12 04:07:13;;;;;;;0.40;0.40;;;6.90;99.90;;;;;;5017538;28;20321;-88
2021/03/12 04:09:40;;;;;;;1.67;0.88;;;7.00;99.90;;;;;;5017688;28;20243;-85
2021/03/12 04:12:09;;;;;;;1.60;0.60;;;7.00;99.90;;;;;;5017458;28;20286;-83
2021/03/12 04:14:37;;;;;;;1.10;0.68;;;6.90;99.90;;;;;;5017383;28;20303;-88
2021/03/12 04:17:04;;;;;;;3.95;1.58;;;6.90;99.90;;;;;;5016052;28;20636;-83
2021/03/12 04:19:31;;;;;;;2.15;1.10;;;7.50;99.90;;;;;;5017465;28;20239;-90
2021/03/12 04:21:59;;;;;;;1.23;0.70;;;6.90;99.60;;;;;;5017161;28;20210;-87
2021/03/12 04:24:26;;;;;;;1.13;0.68;;;6.90;99.90;;;;;;5017564;28;20219;-82
2021/03/12 04:26:52;;;;;;;5.25;0.85;;;6.80;99.70;;;;;;5017089;28;20238;-86
2021/03/12 04:29:23;;;;;;;1.48;0.77;;;6.90;99.90;;;;;;5019411;28;20200;-88
2021/03/12 04:31:50;;;;;;;2.35;0.82;;;7.20;99.90;;;;;;5016637;28;20243;-90
2021/03/12 04:34:17;;;;;;;3.13;1.45;;;6.30;99.90;;;;;;5017572;28;20229;-87
2021/03/12 04:36:44;;;;;;;3.28;1.08;;;6.90;99.80;;;;;;5017041;28;20270;-88
2021/03/12 04:39:11;;;;;;;1.10;0.70;;;6.90;99.40;;;;;;5017408;28;20310;-90
2021/03/12 04:41:38;;;;;;;0.55;0.43;;;6.90;98.80;;;;;;5016705;28;20294;-86
2021/03/12 04:44:05;;;;;;;4.00;0.80;;;6.90;98.70;;;;;;5017143;28;20207;-92
2021/03/12 04:46:35;;;;;;;1.75;0.90;;;6.90;99.10;;;;;;5015576;28;20298;-90
2021/03/12 04:49:03;;;;;;;1.85;0.60;;;6.80;99.00;;;;;;5016810;28;20305;-81
2021/03/12 04:51:29;;;;;;;2.30;0.77;;;6.80;99.20;;;;;;5016100;28;20612;-84
2021/03/12 04:53:56;;;;;;;2.95;0.90;;;6.90;99.40;;;;;;5016566;28;20667;-91
2021/03/12 04:56:23;;;;;;;2.63;0.93;;;6.80;99.50;;;;;;5017314;28;20226;-87
2021/03/12 04:58:50;;;;;;;3.95;1.55;;;6.80;98.80;;;;;;5017122;28;20294;-86
2021/03/12 05:01:16;;;;;;;2.50;1.20;;;6.80;99.10;;;;;;5016494;28;20704;-87
2021/03/12 05:03:44;;;;;;;2.92;1.05;;;6.80;98.70;;;;;;5016367;28;20262;-87
2021/03/12 05:06:13;;;;;;;1.50;0.70;;;6.80;98.90;;;;;;5016230;28;20672;-82
2021/03/12 05:08:40;;;;;;;2.90;1.15;;;6.90;98.90;;;;;;5016093;28;20232;-90
2021/03/12 05:11:09;;;;;;;0.93;0.93;;;6.90;98.60;;;;;;5016020;28;20631;-78
2021/03/12 05:13:36;;;;;;;2.58;1.35;;;6.80;98.30;;;;;;5016035;28;20200;-83
2021/03/12 05:16:03;;;;;;;0.82;0.70;;;6.90;98.30;;;;;;5014077;28;20287;-85
2021/03/12 05:18:29;;;;;;;2.00;1.02;;;6.90;97.90;;;;;;5016041;28;20242;-87
2021/03/12 05:20:57;;;;;;;1.90;0.95;;;6.80;98.30;;;;;;5016144;28;20267;-87
2021/03/12 05:23:24;;;;;;;1.40;0.90;;;6.80;98.40;;;;;;5016877;28;20286;-86
2021/03/12 05:25:51;;;;;;;4.55;0.90;;;6.70;98.30;;;;;;5016476;28;20243;-86
2021/03/12 05:28:17;;;;;;;5.18;0.70;;;6.70;98.30;;;;;;5015820;28;20327;-90
2021/03/12 05:30:44;;;;;;;1.88;0.65;;;6.70;98.50;;;;;;5014692;28;20239;-86
2021/03/12 05:33:10;;;;;;;1.50;1.00;;;6.70;98.30;;;;;;5015693;28;20298;-85
2021/03/12 05:35:37;;;;;;;1.45;0.85;;;7.80;98.30;;;;;;5015286;28;20263;-81
2021/03/12 05:38:04;;;;;;;2.35;0.60;;;6.70;97.90;;;;;;5015607;28;20223;-85
2021/03/12 05:40:31;;;;;;;1.33;1.08;;;6.80;98.20;;;;;;5015483;28;20290;-81
2021/03/12 05:42:59;;;;;;;0.70;0.70;;;6.70;98.00;;;;;;5015744;28;20242;-84
2021/03/12 05:45:26;;;;;;;7.80;1.45;;;6.70;98.20;;;;;;5015347;28;20223;-84
2021/03/12 05:47:53;;;;;;;1.30;0.80;;;6.70;99.20;;;;;;5014484;28;20235;-80
2021/03/12 05:50:21;;;;;;;8.93;1.50;;;6.70;98.40;;;;;;5014779;28;20320;-82
2021/03/12 05:52:48;;;;;;;4.32;1.50;;;6.70;98.70;;;;;;5015408;28;20235;-82
2021/03/12 05:55:16;;;;;;;4.78;1.05;;;6.70;99.00;;;;;;5015463;28;20295;-87
2021/03/12 05:57:42;;;;;;;2.50;1.00;;;6.60;99.30;;;;;;5014498;28;20294;-88
2021/03/12 06:00:10;;;;;;;3.85;1.70;;;6.50;99.60;;;;;;5015978;28;20291;-87
2021/03/12 06:02:37;;;;;;;2.28;1.50;;;6.50;99.90;;;;;;5014375;28;20290;-89
2021/03/12 06:05:06;;;;;;;2.58;0.82;;;6.40;99.90;;;;;;5015661;28;20833;-86
2021/03/12 06:07:33;;;;;;;5.25;2.03;;;6.40;99.90;;;;;;5015566;28;20228;-83
2021/03/12 06:09:59;;;;;;;2.83;1.75;;;6.40;99.90;;;;;;5015327;28;20298;-82
2021/03/12 06:12:27;;;;;;;2.78;1.40;;;6.40;99.90;;;;;;5013978;28;20235;-83
2021/03/12 06:14:55;;;;;;;5.40;1.58;;;6.50;99.90;;;;;;5015589;28;20730;-83
2021/03/12 06:17:39;;;;;;;4.60;1.67;;;6.50;99.90;;;;;;5021630;28;20293;-84
2021/03/12 06:20:08;;;;;;;7.03;1.52;;;6.60;99.90;;;;;;5037774;28;20191;-84
2021/03/12 06:22:35;;;;;;;5.03;1.92;;;6.50;99.90;;;;;;5028094;28;20227;-86
2021/03/12 06:25:13;;;;;;;3.72;1.90;;;6.50;99.90;;;;;;5019377;28;20294;-81
2021/03/12 06:27:42;;;;;;;3.60;2.72;;;6.50;99.90;;;;;;5038390;28;20199;-84
2021/03/12 06:30:10;;;;;;;9.43;4.45;;;6.60;99.90;;;;;;4998412;28;20312;-82
2021/03/12 06:32:41;;;;;;;7.05;2.88;;;6.70;99.90;;;;;;4989692;28;20685;-85
2021/03/12 06:35:09;;;;;;;4.05;1.95;;;6.90;99.90;;;;;;4981323;28;20584;-87
2021/03/12 06:37:36;;;;;;;2.95;1.40;;;7.00;99.90;;;;;;4977955;28;20256;-87
2021/03/12 06:40:20;;;;;;;4.13;1.90;;;7.00;99.90;;;;;;4980139;28;20210;-87
2021/03/12 06:43:07;;;;;;;1.77;1.15;;;7.10;99.80;;;;;;4971599;28;20244;-83
2021/03/12 06:45:49;;;;;;;4.00;1.50;;;7.30;99.60;;;;;;4973179;28;20243;-87
2021/03/12 06:48:17;;;;;;;3.17;1.23;;;7.20;99.90;;;;;;4993580;28;20296;-87
2021/03/12 06:50:49;;;;;;;2.50;1.45;;;7.40;99.90;;;;;;5014447;28;20242;-88
2021/03/12 06:53:20;;;;;;;5.30;1.40;;;7.40;99.40;;;;;;5015073;28;20243;-88
2021/03/12 06:55:46;;;;;;;3.72;1.17;;;7.30;98.60;;;;;;5016661;28;20462;-89
2021/03/12 06:58:14;;;;;;;2.40;1.10;;;7.40;98.80;;;;;;5014598;28;20203;-86
2021/03/12 07:00:40;;;;;;;1.20;0.90;;;7.30;99.10;;;;;;5013481;28;20988;-87
2021/03/12 07:03:26;;;;;;;1.43;0.90;;;7.40;98.90;;;;;;5014389;28;20549;-85
2021/03/12 07:06:16;;;;;;;0.60;0.60;;;7.40;99.00;;;;;;5013844;28;20497;-86
2021/03/12 07:08:47;;;;;;;4.10;0.90;;;7.60;99.20;;;;;;5014344;28;20912;-89
2021/03/12 07:11:19;;;;;;;3.90;1.50;;;7.60;98.90;;;;;;5015438;28;20954;-90
2021/03/12 07:13:47;;;;;;;2.13;0.83;;;7.60;98.80;;;;;;5013978;28;21016;-81
2021/03/12 07:16:14;;;;;;;0.77;0.70;;;7.60;99.00;;;;;;5013832;28;20553;-86
2021/03/12 07:18:40;;;;;;;6.70;1.50;;;7.70;99.30;;;;;;5014097;28;20463;-83
2021/03/12 07:21:07;;;;;;;2.23;0.77;;;7.80;99.30;;;;;;5014644;28;20493;-87
2021/03/12 07:23:37;;;;;;;1.40;0.70;;;7.90;99.70;;;;;;5020102;28;20494;-92
2021/03/12 07:26:09;;;;;;;8.10;1.60;;;7.90;99.70;;;;;;5018923;28;20811;-88
2021/03/12 07:28:37;;;;;;;1.90;0.97;;;8.00;99.30;;;;;;5016200;28;20494;-82
2021/03/12 07:31:05;;;;;;;2.50;1.00;;;8.20;99.70;;;;;;5015070;28;20542;-88
2021/03/12 07:33:35;;;;;;;1.33;1.03;;;8.30;99.20;;;;;;5017782;28;20446;-83
2021/03/12 07:36:04;;;;;;;0.80;0.73;;;8.30;99.20;;;;;;5014655;28;20487;-83
2021/03/12 07:38:34;;;;;;;2.50;1.53;;;8.10;99.50;;;;;;5015164;28;20455;-88
2021/03/12 07:41:03;;;;;;;0.73;0.73;;;8.00;99.70;;;;;;5014470;28;20475;-87
2021/03/12 07:43:32;;;;;;;2.73;0.73;;;7.80;99.90;;;;;;5013379;28;20450;-86
2021/03/12 07:46:00;;;;;;;2.50;0.93;;;7.70;99.90;;;;;;5013701;28;20495;-84
2021/03/12 07:48:29;;;;;;;1.30;0.80;;;7.70;99.90;;;;;;5013107;28;20498;-84
2021/03/12 07:51:09;;;;;;;2.40;2.00;;;7.70;99.90;;;;;;5013125;28;20529;-84
2021/03/12 07:53:52;;;;;;;3.20;0.90;;;8.10;99.90;;;;;;5013446;28;21020;-80
2021/03/12 07:56:57;;;;;;;1.43;0.70;;;8.40;99.90;;;;;;5013174;28;20813;-89
2021/03/12 07:59:59;;;;;;;0.60;0.60;;;8.00;99.90;;;;;;5011715;28;20520;-79
2021/03/12 08:02:56;;;;;;;1.27;1.00;;;8.10;99.60;;;;;;5012636;28;20465;-81
2021/03/12 08:05:35;;;;;;;2.20;0.90;;;7.80;99.90;;;;;;5013322;28;20506;-80
2021/03/12 08:08:02;;;;;;;4.13;1.20;;;7.60;99.90;;;;;;5012998;28;20573;-81
2021/03/12 08:10:29;;;;;;;5.30;2.00;;;7.40;99.90;;;;;;5013228;28;20730;-83
2021/03/12 08:12:56;;;;;;;7.10;1.23;;;7.30;99.90;;;;;;5012153;28;20590;-84
2021/03/12 08:15:24;;;;;;;3.22;1.00;;;7.20;99.90;;;;;;5013250;28;20200;-79
2021/03/12 08:18:26;;;;;;;2.70;1.33;;;7.40;99.90;;;;;;5012253;28;20239;-85
2021/03/12 08:20:54;;;;;;;1.88;0.90;;;7.50;99.90;;;;;;5009587;28;20210;-86
2021/03/12 08:23:41;;;;;;;4.75;0.98;;;7.70;99.90;;;;;;5012811;28;20232;-82
2021/03/12 08:26:07;;;;;;;1.77;0.90;;;7.70;99.90;;;;;;5006889;28;20289;-83
2021/03/12 08:28:34;;;;;;;1.52;1.02;;;8.50;99.90;;;;;;5012844;28;20545;-82
2021/03/12 08:31:02;;;;;;;4.30;1.08;;;7.60;99.90;;;;;;5011697;28;20209;-81
2021/03/12 08:33:34;;;;;;;9.57;2.10;;;7.60;99.90;;;;;;5013379;28;20236;-82
2021/03/12 08:36:01;;;;;;;3.70;0.90;;;7.60;99.90;;;;;;5012646;28;20397;-83
2021/03/12 08:38:41;;;;;;;1.25;0.85;;;7.70;99.90;;;;;;5012810;28;20299;-83
2021/03/12 08:41:38;;;;;;;2.80;1.85;;;7.70;99.90;;;;;;5013004;28;20203;-83
2021/03/12 08:44:12;;;;;;;2.30;1.50;;;7.60;99.90;;;;;;5012727;28;20294;-84
2021/03/12 08:46:39;;;;;;;4.17;1.10;;;7.90;99.90;;;;;;5011581;28;20685;-83
2021/03/12 08:49:08;;;;;;;1.65;1.02;;;8.30;99.90;;;;;;5011694;28;20754;-85
2021/03/12 08:51:39;;;;;;;0.63;0.60;;;8.50;99.90;;;;;;5015428;28;20210;-89
2021/03/12 08:54:05;;;;;;;2.93;1.00;;;8.50;99.90;;;;;;5016720;28;21032;-84
2021/03/12 08:56:33;;;;;;;1.13;0.80;;;8.50;99.90;;;;;;5016639;28;20958;-86
2021/03/12 08:59:01;;;;;;;2.13;1.03;;;8.50;99.90;;;;;;5015735;28;20768;-86
2021/03/12 09:01:29;;;;;;;1.10;0.90;;;8.50;99.90;;;;;;5017615;28;20454;-86
2021/03/12 09:03:57;;;;;;;1.90;1.03;;;8.50;99.90;;;;;;5016308;28;20474;-85
2021/03/12 09:06:26;;;;;;;0.60;0.50;;;8.60;99.90;;;;;;5016488;28;20489;-86
2021/03/12 09:08:53;;;;;;;6.20;1.10;;;8.80;99.90;;;;;;5016047;28;20497;-83
2021/03/12 09:11:21;;;;;;;1.33;0.87;;;8.90;99.80;;;;;;5016075;28;20541;-87
2021/03/12 09:13:49;;;;;;;1.00;0.90;;;8.80;99.80;;;;;;5016139;28;20537;-85
2021/03/12 09:16:21;;;;;;;3.40;1.73;;;8.80;99.90;;;;;;5014936;28;20557;-86
2021/03/12 09:18:49;;;;;;;2.63;0.83;;;8.70;99.70;;;;;;5015699;28;20546;-85
2021/03/12 09:21:17;;;;;;;2.53;1.03;;;8.70;99.80;;;;;;5015676;28;20550;-86
2021/03/12 09:23:45;;;;;;;2.90;1.00;;;8.60;99.80;;;;;;5015860;28;20852;-82
2021/03/12 09:26:14;;;;;;;3.23;1.27;;;8.70;99.90;;;;;;5015825;28;21017;-81
2021/03/12 09:28:41;;;;;;;1.10;1.00;;;9.00;98.90;;;;;;5015728;28;20585;-82
2021/03/12 09:31:10;;;;;;;1.17;0.73;;;9.30;99.00;;;;;;5014346;28;20449;-82
2021/03/12 09:33:38;;;;;;;5.67;0.77;;;9.40;99.10;;;;;;5016186;28;20489;-91
2021/03/12 09:36:22;;;;;;;4.10;1.13;;;9.60;99.00;;;;;;5015371;28;20558;-84
2021/03/12 09:38:48;;;;;;;3.50;1.53;;;10.00;97.50;;;;;;5015714;28;20446;-85
2021/03/12 09:41:33;;;;;;;2.03;1.00;;;9.80;97.90;;;;;;5015552;28;20545;-81
2021/03/12 09:44:06;;;;;;;4.00;0.97;;;9.70;97.50;;;;;;5015378;28;20534;-82
2021/03/12 09:46:35;;;;;;;4.47;0.93;;;9.60;97.00;;;;;;5014552;28;20451;-83
2021/03/12 09:49:06;;;;;;;3.90;1.70;;;9.90;97.20;;;;;;5015169;28;20521;-82
2021/03/12 09:51:33;;;;;;;0.93;0.80;;;9.90;97.00;;;;;;5016436;28;20454;-83
2021/03/12 09:54:00;;;;;;;1.77;0.90;;;9.80;97.00;;;;;;5017336;28;20537;-85
2021/03/12 09:56:28;;;;;;;1.07;0.97;;;9.80;96.80;;;;;;5015979;28;20458;-83
2021/03/12 09:58:54;;;;;;;1.93;1.03;;;9.70;96.80;;;;;;5016007;28;20545;-89
2021/03/12 10:01:21;;;;;;;4.23;0.90;;;9.80;97.10;;;;;;5013827;28;20458;-83
2021/03/12 10:03:48;;;;;;;6.90;1.60;;;9.80;97.80;;;;;;5014883;28;20450;-82
2021/03/12 10:06:15;;;;;;;1.97;0.93;;;9.70;97.80;;;;;;5015447;28;20537;-80
2021/03/12 10:09:06;;;;;;;1.10;0.90;;;9.60;97.70;;;;;;5014926;28;20885;-84
2021/03/12 10:11:47;;;;;;;4.40;1.30;;;9.50;97.50;;;;;;5020835;28;20468;-83
2021/03/12 10:14:27;;;;;;;1.47;0.97;;;9.40;98.00;;;;;;5015839;28;21041;-84
2021/03/12 10:17:14;;;;;;;8.40;2.50;;;9.30;97.90;;;;;;5013764;28;21017;-85
2021/03/12 10:19:48;;;;;;;5.17;1.37;;;9.10;97.60;;;;;;5013871;28;20509;-81
2021/03/12 10:22:22;;;;;;;4.67;1.87;;;9.30;97.80;;;;;;5014923;28;20455;-83
2021/03/12 10:24:55;;;;;;;1.40;1.00;;;9.30;97.70;;;;;;5015337;28;20461;-82
2021/03/12 10:27:24;;;;;;;6.17;1.53;;;9.00;97.80;;;;;;5024833;28;20954;-79
2021/03/12 10:29:51;;;;;;;1.17;0.60;;;9.30;98.20;;;;;;5035475;28;20483;-84
2021/03/12 10:32:18;;;;;;;3.67;0.80;;;9.20;97.90;;;;;;5022882;28;20455;-87
2021/03/12 10:34:46;;;;;;;1.70;0.97;;;9.30;97.70;;;;;;4963239;29;20493;-86
2021/03/12 10:37:14;;;;;;;2.23;1.10;;;9.30;98.00;;;;;;4975040;29;20898;-79
2021/03/12 10:39:42;;;;;;;1.13;0.83;;;9.60;98.30;;;;;;4972252;29;20487;-82
2021/03/12 10:42:09;;;;;;;0.67;0.60;;;9.90;98.00;;;;;;4965127;29;20500;-82
2021/03/12 10:44:50;;;;;;;2.83;1.17;;;10.00;97.10;;;;;;4959575;29;20461;-86
2021/03/12 10:47:16;;;;;;;3.63;1.10;;;10.40;96.70;;;;;;4953179;29;20449;-87
2021/03/12 10:49:43;;;;;;;1.67;0.90;;;10.50;95.80;;;;;;4954237;29;20540;-85
2021/03/12 10:52:09;;;;;;;3.30;0.90;;;11.20;95.70;;;;;;4964277;28;20538;-86
2021/03/12 10:54:36;;;;;;;1.40;0.73;;;11.70;94.20;;;;;;4994873;28;20861;-86
2021/03/12 10:57:04;;;;;;;2.33;0.60;;;11.90;92.80;;;;;;5004694;28;20662;-85
2021/03/12 10:59:30;;;;;;;0.47;0.47;;;11.40;93.20;;;;;;5014672;28;20460;-86
2021/03/12 11:02:10;;;;;;;0.70;0.60;;;11.10;93.70;;;;;;5013079;28;20473;-88
2021/03/12 11:04:38;;;;;;;0.60;0.50;;;10.50;94.80;;;;;;5014648;28;20469;-86
2021/03/12 11:07:04;;;;;;;1.20;0.57;;;10.30;96.10;;;;;;5014608;28;20454;-83
2021/03/12 11:09:31;;;;;;;1.53;0.70;;;10.20;95.60;;;;;;5013816;28;20533;-89
2021/03/12 11:11:57;;;;;;;1.73;0.80;;;10.20;96.00;;;;;;5014386;28;20497;-81
2021/03/12 11:14:24;;;;;;;1.23;0.60;;;10.70;96.20;;;;;;5014244;28;20458;-83
2021/03/12 11:16:51;;;;;;;1.13;0.70;;;10.50;94.70;;;;;;5012858;28;20550;-82
2021/03/12 11:19:18;;;;;;;2.47;1.07;;;10.50;94.30;;;;;;5012984;28;21037;-86
2021/03/12 11:21:45;;;;;;;1.80;0.60;;;10.70;95.40;;;;;;5013978;28;20479;-83
2021/03/12 11:24:11;;;;;;;1.13;0.67;;;10.60;96.00;;;;;;5013825;28;20478;-82
2021/03/12 11:26:42;;;;;;;0.93;0.57;;;10.60;95.70;;;;;;5013822;28;20451;-81
2021/03/12 11:29:08;;;;;;;0.83;0.50;;;10.90;94.70;;;;;;5013537;28;20525;-83
2021/03/12 11:31:35;;;;;;;0.90;0.60;;;10.90;93.10;;;;;;5012619;28;20881;-82
2021/03/12 11:34:02;;;;;;;1.27;0.70;;;11.30;93.00;;;;;;5014301;28;20501;-85
2021/03/12 11:36:30;;;;;;;2.10;0.80;;;11.40;91.50;;;;;;5013263;28;21032;-84
2021/03/12 11:38:56;;;;;;;1.03;0.70;;;11.50;90.50;;;;;;5013472;28;20549;-82
2021/03/12 11:41:23;;;;;;;3.00;0.80;;;11.50;90.20;;;;;;5013443;28;20489;-81
2021/03/12 11:43:49;;;;;;;1.90;0.50;;;11.60;90.10;;;;;;5013488;28;20454;-83
2021/03/12 11:46:15;;;;;;;1.60;1.20;;;12.00;90.00;;;;;;5012321;28;20485;-90
2021/03/12 11:48:42;;;;;;;2.33;0.70;;;11.90;87.30;;;;;;5013501;28;20533;-80
2021/03/12 11:51:08;;;;;;;2.03;0.80;;;11.70;87.50;;;;;;5010415;28;20553;-84
2021/03/12 11:53:35;;;;;;;1.70;1.17;;;11.60;87.40;;;;;;5013417;28;20454;-85
2021/03/12 11:56:02;;;;;;;0.93;0.73;;;11.10;87.90;;;;;;5013692;28;20554;-82
2021/03/12 11:58:28;;;;;;;0.80;0.60;;;11.30;90.10;;;;;;5013386;28;20902;-82
2021/03/12 12:00:55;;;;;;;1.77;0.67;;;10.80;90.10;;;;;;5011462;28;20466;-80
2021/03/12 12:03:21;;;;;;;1.33;0.70;;;10.70;90.80;;;;;;5012847;28;20446;-87
2021/03/12 12:05:48;;;;;;;0.50;0.50;;;10.80;90.10;;;;;;5013447;28;20537;-88
2021/03/12 12:08:14;;;;;;;1.57;0.83;;;10.70;85.80;;;;;;5013396;28;20581;-89
2021/03/12 12:10:41;;;;;;;0.80;0.50;;;10.90;85.80;;;;;;5013367;28;20541;-85
2021/03/12 12:13:08;;;;;;;1.07;0.57;;;10.80;85.10;;;;;;5013269;28;20553;-85
2021/03/12 12:15:35;;;;;;;2.30;0.53;;;10.90;83.90;;;;;;5013531;28;20478;-84
2021/03/12 12:18:05;;;;;;;1.20;0.70;;;11.10;85.20;;;;;;5011913;28;20525;-86
2021/03/12 12:20:32;;;;;;;4.53;1.30;;;11.30;86.80;;;;;;4993703;28;20969;-85
2021/03/12 12:22:59;;;;;;;2.20;0.80;;;10.80;86.60;;;;;;4994209;28;20486;-85
2021/03/12 12:25:25;;;;;;;1.63;0.70;;;11.00;86.20;;;;;;4994147;28;20983;-88
2021/03/12 12:27:55;;;;;;;2.03;0.80;;;11.10;86.20;;;;;;4997557;28;20574;-88
2021/03/12 12:30:31;;;;;;;1.33;0.80;;;11.20;86.50;;;;;;4998375;28;20813;-87
2021/03/12 12:32:58;;;;;;;1.97;0.87;;;11.70;85.60;;;;;;4996002;28;20530;-83
2021/03/12 12:35:24;;;;;;;2.70;0.90;;;11.60;85.20;;;;;;4996544;28;20479;-84
2021/03/12 12:37:51;;;;;;;2.00;0.80;;;11.60;83.20;;;;;;4997274;28;20463;-83
2021/03/12 12:40:18;;;;;;;1.63;0.90;;;11.80;83.00;;;;;;4997464;28;20538;-89
2021/03/12 12:42:45;;;;;;;2.23;0.70;;;11.60;83.20;;;;;;4997341;28;20466;-83
2021/03/12 12:45:13;;;;;;;2.63;1.17;;;11.60;83.70;;;;;;4997046;28;20506;-82
2021/03/12 12:47:40;;;;;;;1.03;0.77;;;11.30;84.00;;;;;;4995828;28;20541;-83
2021/03/12 12:50:07;;;;;;;1.03;0.50;;;11.40;84.40;;;;;;5014109;28;20637;-84
2021/03/12 12:52:34;;;;;;;0.80;0.80;;;10.90;81.60;;;;;;5016745;28;20870;-87
2021/03/12 12:55:00;;;;;;;0.60;0.60;;;10.70;81.60;;;;;;5016514;28;20474;-83
2021/03/12 12:57:27;;;;;;;1.30;1.10;;;10.70;83.50;;;;;;5020466;28;20534;-80
2021/03/12 12:59:53;;;;;;;1.90;0.73;;;10.50;84.50;;;;;;5017058;28;20470;-83
2021/03/12 13:02:20;;;;;;;1.60;0.90;;;10.40;84.40;;;;;;5014093;28;20552;-85
2021/03/12 13:04:47;;;;;;;1.37;0.70;;;10.50;84.80;;;;;;5017275;28;20554;-85